createdAt,value
2023-04-26T05:46:11.934Z,4.00
2023-04-26T05:48:57.663Z,4.25
2023-04-26T05:51:43.407Z,4.45
2023-04-26T05:54:28.570Z,3.90
2023-04-26T05:57:14.079Z,4.45
2023-04-26T05:59:59.591Z,3.40
2023-04-26T06:02:48.577Z,3.60
2023-04-26T06:05:34.611Z,4.97
2023-04-26T06:08:19.659Z,3.72
2023-04-26T06:11:12.733Z,3.42
2023-04-26T06:13:57.993Z,3.45
2023-04-26T06:16:43.929Z,3.53
2023-04-26T06:19:29.226Z,3.67
2023-04-26T06:22:16.697Z,3.60
2023-04-26T06:25:02.519Z,3.28
2023-04-26T06:27:49.062Z,3.50
2023-04-26T06:30:36.751Z,3.50
2023-04-26T06:33:23.204Z,3.45
2023-04-26T06:36:20.080Z,4.00
2023-04-26T06:39:06.393Z,3.53
2023-04-26T06:41:52.623Z,3.20
2023-04-26T06:44:40.084Z,3.50
2023-04-26T06:47:25.696Z,4.53
2023-04-26T06:50:11.889Z,3.12
2023-04-26T06:52:57.626Z,3.22
2023-04-26T06:55:43.190Z,2.87
2023-04-26T06:58:28.600Z,3.12
2023-04-26T07:01:15.010Z,3.20
2023-04-26T07:04:10.964Z,2.72
2023-04-26T07:06:58.161Z,3.05
2023-04-26T07:09:44.122Z,3.20
2023-04-26T07:12:29.536Z,2.97
2023-04-26T07:15:15.154Z,3.55
2023-04-26T07:18:00.849Z,3.25
2023-04-26T07:20:46.226Z,3.00
2023-04-26T07:23:32.879Z,3.15
2023-04-26T07:26:18.266Z,2.80
2023-04-26T07:29:06.216Z,3.35
2023-04-26T07:31:57.374Z,2.67
2023-04-26T07:34:50.971Z,3.05
2023-04-26T07:37:36.653Z,3.00
2023-04-26T07:40:26.439Z,3.03
2023-04-26T07:43:15.677Z,2.95
2023-04-26T07:46:02.334Z,3.00
2023-04-26T07:48:50.116Z,2.60
2023-04-26T07:51:38.145Z,3.17
2023-04-26T07:54:28.933Z,2.58
2023-04-26T07:57:19.073Z,2.95
2023-04-26T08:00:10.368Z,3.05
2023-04-26T08:02:56.055Z,2.62
2023-04-26T08:05:56.301Z,2.30
2023-04-26T08:08:45.298Z,3.67
2023-04-26T08:11:30.658Z,2.80
2023-04-26T08:14:22.998Z,2.17
2023-04-26T08:17:12.243Z,2.53
2023-04-26T08:19:59.612Z,2.85
2023-04-26T08:22:45.134Z,2.30
2023-04-26T08:25:31.787Z,2.60
2023-04-26T08:28:18.643Z,2.47
2023-04-26T08:31:04.537Z,2.35
2023-04-26T08:33:51.161Z,2.37
2023-04-26T08:36:41.693Z,2.45
2023-04-26T08:39:27.165Z,2.40
2023-04-26T08:42:20.086Z,2.28
2023-04-26T08:45:06.507Z,2.30
2023-04-26T08:48:10.556Z,2.55
2023-04-26T08:50:56.863Z,2.10
2023-04-26T08:53:43.087Z,2.08
2023-04-26T08:56:36.288Z,1.70
2023-04-26T08:59:21.921Z,1.70
2023-04-26T09:02:08.099Z,2.22
2023-04-26T09:04:53.344Z,1.70
2023-04-26T09:07:47.083Z,1.87
2023-04-26T09:10:33.886Z,2.08
2023-04-26T09:13:19.214Z,1.50
2023-04-26T09:16:05.099Z,1.90
2023-04-26T09:18:57.351Z,1.55
2023-04-26T09:21:45.251Z,2.08
2023-04-26T09:24:57.541Z,1.73
2023-04-26T09:27:44.247Z,1.90
2023-04-26T09:30:39.457Z,1.73
2023-04-26T09:33:25.217Z,1.75
2023-04-26T09:36:13.741Z,2.00
2023-04-26T09:39:01.257Z,1.73
2023-04-26T09:41:47.595Z,1.65
2023-04-26T09:44:33.382Z,2.75
2023-04-26T09:47:18.452Z,2.28
2023-04-26T09:50:04.298Z,2.12
2023-04-26T09:52:50.319Z,1.40
2023-04-26T09:55:36.908Z,1.20
2023-04-26T09:58:23.489Z,1.50
2023-04-26T10:01:09.551Z,1.12
2023-04-26T10:03:57.819Z,1.20
2023-04-26T10:06:43.499Z,2.15
2023-04-26T10:09:29.168Z,1.30
2023-04-26T10:12:16.803Z,1.33
2023-04-26T10:15:03.845Z,1.02
2023-04-26T10:17:50.773Z,0.95
2023-04-26T10:20:42.317Z,0.90
2023-04-26T10:23:28.004Z,1.10
2023-04-26T10:26:55.044Z,1.17
2023-04-26T10:29:56.497Z,1.40
2023-04-26T10:33:02.234Z,1.10
2023-04-26T10:36:26.222Z,1.40
2023-04-26T10:39:25.151Z,1.30
2023-04-26T10:42:24.171Z,1.75
2023-04-26T10:45:27.429Z,1.20
2023-04-26T10:48:19.953Z,0.90
2023-04-26T10:51:12.804Z,1.20
2023-04-26T10:56:47.102Z,1.20
2023-04-26T10:59:43.401Z,1.12
2023-04-26T11:03:08.137Z,1.12
2023-04-26T11:05:55.488Z,1.30
2023-04-26T11:08:41.124Z,1.20
2023-04-26T11:11:29.789Z,0.80
2023-04-26T11:14:16.402Z,1.15
2023-04-26T11:17:06.473Z,1.20
2023-04-26T11:19:51.882Z,1.40
2023-04-26T11:22:40.507Z,1.27
2023-04-26T11:25:28.289Z,1.10
2023-04-26T11:28:20.309Z,1.27
2023-04-26T11:31:07.500Z,2.00
2023-04-26T11:33:52.561Z,1.77
2023-04-26T11:36:38.789Z,1.33
2023-04-26T11:39:24.440Z,1.10
2023-04-26T11:42:11.905Z,1.33
2023-04-26T11:44:57.636Z,1.50
2023-04-26T11:47:44.353Z,1.20
2023-04-26T11:50:32.335Z,1.40
2023-04-26T11:53:18.070Z,1.00
2023-04-26T11:56:05.705Z,0.93
2023-04-26T11:58:52.675Z,1.73
2023-04-26T12:01:38.317Z,1.12
2023-04-26T12:04:30.396Z,1.60
2023-04-26T12:07:18.942Z,1.65
2023-04-26T12:10:19.081Z,1.48
2023-04-26T12:13:13.812Z,1.10
2023-04-26T12:15:59.816Z,1.83
2023-04-26T12:18:50.910Z,1.60
2023-04-26T12:21:43.132Z,1.10
2023-04-26T12:24:34.760Z,1.85
2023-04-26T12:27:21.376Z,1.80
2023-04-26T12:30:07.261Z,1.40
2023-04-26T12:32:52.434Z,1.95
2023-04-26T12:35:37.815Z,1.45
2023-04-26T12:38:23.488Z,1.75
